createdAt,value
2022-10-05T00:00:02.692Z,89.6
2022-10-05T00:15:03.143Z,89.1
2022-10-05T00:30:02.702Z,89.1
2022-10-05T00:45:02.989Z,89.7
2022-10-05T01:00:02.618Z,90.1
2022-10-05T01:15:02.892Z,90.3
2022-10-05T01:30:02.294Z,90.1
2022-10-05T01:45:02.753Z,89.9
2022-10-05T02:00:03.201Z,90.3
2022-10-05T02:15:02.715Z,90.4
2022-10-05T02:30:03.073Z,90.8
2022-10-05T02:45:02.728Z,91.0
2022-10-05T03:00:02.939Z,91.0
2022-10-05T03:15:02.372Z,90.8
2022-10-05T03:30:02.821Z,90.3
2022-10-05T03:45:02.252Z,90.3
2022-10-05T04:00:02.736Z,90.3
2022-10-05T04:15:03.146Z,90.4
2022-10-05T04:30:02.772Z,90.8
2022-10-05T04:45:03.034Z,91.0
2022-10-05T05:00:02.647Z,91.0
2022-10-05T05:15:02.888Z,90.7
2022-10-05T05:30:02.317Z,90.9
2022-10-05T05:45:02.785Z,90.9
2022-10-05T06:00:03.230Z,91.0
2022-10-05T06:15:02.763Z,90.5
2022-10-05T06:30:02.135Z,90.0
2022-10-05T06:45:02.721Z,89.7
2022-10-05T07:00:02.957Z,89.1
2022-10-05T07:15:02.409Z,88.4
2022-10-05T07:30:02.864Z,86.3
2022-10-05T07:45:02.276Z,84.2
2022-10-05T08:00:02.785Z,83.8
2022-10-05T08:15:03.164Z,83.3
2022-10-05T08:30:03.049Z,82.7
2022-10-05T09:00:02.465Z,82.4
2022-10-05T09:15:24.446Z,82.7
2022-10-05T09:30:03.352Z,80.3
2022-10-05T09:45:02.801Z,78.4
2022-10-05T10:00:03.293Z,77.1
2022-10-05T10:15:03.208Z,74.2
2022-10-05T10:30:03.093Z,72.2
2022-10-05T10:45:02.524Z,71.0
2022-10-05T11:00:03.003Z,68.9
2022-10-05T11:15:02.400Z,69.1
2022-10-05T11:30:02.859Z,69.4
2022-10-05T11:45:02.283Z,68.3
2022-10-05T12:00:02.837Z,68.3
2022-10-05T12:15:03.210Z,65.4
2022-10-05T12:30:02.881Z,63.7
2022-10-05T12:45:02.070Z,61.3
2022-10-05T13:00:02.519Z,61.5
2022-10-05T13:15:02.947Z,61.4
2022-10-05T13:30:02.409Z,59.1
2022-10-05T13:45:02.848Z,58.3
2022-10-05T14:00:02.260Z,60.1
2022-10-05T14:15:02.856Z,60.2
2022-10-05T14:30:02.154Z,61.9
2022-10-05T14:45:02.793Z,63.0
2022-10-05T15:00:03.051Z,64.2
2022-10-05T15:15:02.479Z,65.0
2022-10-05T15:30:02.919Z,66.0
2022-10-05T15:45:02.352Z,67.1
2022-10-05T16:00:02.880Z,67.8
2022-10-05T16:15:02.217Z,68.3
2022-10-05T16:30:02.873Z,69.5
2022-10-05T16:45:02.146Z,70.8
2022-10-05T17:00:02.554Z,72.4
2022-10-05T17:15:03.048Z,72.9
2022-10-05T17:30:02.496Z,73.7
2022-10-05T17:45:02.898Z,73.5
2022-10-05T18:00:02.539Z,73.2
2022-10-05T18:15:02.906Z,73.8
2022-10-05T18:30:02.231Z,74.6
2022-10-05T18:45:02.900Z,71.8
2022-10-05T19:00:02.179Z,70.8
2022-10-05T19:15:02.551Z,70.0
2022-10-05T19:30:03.025Z,69.9
2022-10-05T19:45:02.453Z,70.4
2022-10-05T20:00:02.934Z,70.9
2022-10-05T20:15:02.316Z,71.3
2022-10-05T20:30:02.916Z,71.7
2022-10-05T20:45:02.213Z,72.2
2022-10-05T21:00:02.638Z,72.4
2022-10-05T21:15:03.112Z,72.5
2022-10-05T21:30:02.529Z,72.6
2022-10-05T21:45:02.991Z,72.5
2022-10-05T22:00:02.416Z,72.8
2022-10-05T22:15:02.942Z,72.8
2022-10-05T22:30:02.275Z,73.8
2022-10-05T22:45:02.958Z,72.1
2022-10-05T23:00:02.201Z,76.5
2022-10-05T23:15:02.637Z,81.9
2022-10-05T23:30:03.071Z,85.3
2022-10-05T23:45:02.528Z,87.6
